createdAt,value
2019-01-25T00:01:17.826Z,-3.40
2019-01-25T00:03:47.241Z,-3.40
2019-01-25T00:06:16.738Z,-3.50
2019-01-25T00:08:46.135Z,-3.40
2019-01-25T00:11:15.545Z,-3.40
2019-01-25T00:13:44.974Z,-3.40
2019-01-25T00:16:14.404Z,-3.40
2019-01-25T00:18:43.822Z,-3.40
2019-01-25T00:21:13.331Z,-3.40
2019-01-25T00:23:42.748Z,-3.40
2019-01-25T00:26:12.254Z,-3.40
2019-01-25T00:28:41.737Z,-3.40
2019-01-25T00:31:11.285Z,-3.50
2019-01-25T00:33:40.692Z,-3.40
2019-01-25T00:36:10.143Z,-3.40
2019-01-25T00:38:39.631Z,-3.40
2019-01-25T00:41:09.150Z,-3.30
2019-01-25T00:43:38.565Z,-3.40
2019-01-25T00:46:08.001Z,-3.40
2019-01-25T00:48:37.431Z,-3.40
2019-01-25T00:51:06.875Z,-3.40
2019-01-25T00:53:36.305Z,-3.40
2019-01-25T00:56:06.721Z,-3.30
2019-01-25T00:58:36.195Z,-3.40
2019-01-25T01:01:05.909Z,-3.40
2019-01-25T01:03:35.671Z,-3.40
2019-01-25T01:06:05.844Z,-3.30
2019-01-25T01:08:35.335Z,-3.40
2019-01-25T01:11:04.837Z,-3.40
2019-01-25T01:13:34.231Z,-3.40
2019-01-25T01:16:04.407Z,-3.40
2019-01-25T01:18:33.815Z,-3.30
2019-01-25T01:21:03.320Z,-3.30
2019-01-25T01:23:32.904Z,-3.40
2019-01-25T01:26:02.312Z,-3.40
2019-01-25T01:28:31.746Z,-3.40
2019-01-25T01:31:01.166Z,-3.30
2019-01-25T01:33:30.789Z,-3.30
2019-01-25T01:36:00.194Z,-3.30
2019-01-25T01:38:29.692Z,-3.30
2019-01-25T01:40:59.136Z,-3.30
2019-01-25T01:43:28.572Z,-3.30
2019-01-25T01:45:58.146Z,-3.30
2019-01-25T01:48:27.638Z,-3.30
2019-01-25T01:50:57.146Z,-3.30
2019-01-25T01:53:26.582Z,-3.30
2019-01-25T01:55:55.994Z,-3.30
2019-01-25T01:58:25.427Z,-3.30
2019-01-25T02:00:54.840Z,-3.20
2019-01-25T02:03:24.268Z,-3.20
2019-01-25T02:05:53.666Z,-3.20
2019-01-25T02:08:23.086Z,-3.20
2019-01-25T02:10:52.634Z,-3.20
2019-01-25T02:13:22.072Z,-3.20
2019-01-25T02:15:51.492Z,-3.20
2019-01-25T02:18:21.063Z,-3.20
2019-01-25T02:20:50.554Z,-3.20
2019-01-25T02:23:20.045Z,-3.20
2019-01-25T02:25:49.475Z,-3.20
2019-01-25T02:28:18.921Z,-3.20
2019-01-25T02:30:48.384Z,-3.20
2019-01-25T02:33:17.891Z,-3.20
2019-01-25T02:35:47.339Z,-3.20
2019-01-25T02:38:16.817Z,-3.20
2019-01-25T02:40:46.303Z,-3.10
2019-01-25T02:43:15.891Z,-3.20
2019-01-25T02:45:45.321Z,-3.20
2019-01-25T02:48:14.991Z,-3.10
2019-01-25T02:50:44.399Z,-3.10
2019-01-25T02:53:13.847Z,-3.20
2019-01-25T02:55:43.279Z,-3.30
2019-01-25T02:58:12.684Z,-3.20
2019-01-25T03:00:42.103Z,-3.20
2019-01-25T03:03:11.506Z,-3.20
2019-01-25T03:05:40.936Z,-3.20
2019-01-25T03:08:10.342Z,-3.20
2019-01-25T03:10:46.997Z,-3.20
2019-01-25T03:13:10.859Z,-3.20
2019-01-25T03:15:40.279Z,-3.20
2019-01-25T03:18:09.691Z,-3.30
2019-01-25T03:20:39.518Z,-3.30
2019-01-25T03:23:09.045Z,-3.20
2019-01-25T03:25:38.539Z,-3.20
2019-01-25T03:28:08.084Z,-3.20
2019-01-25T03:30:37.509Z,-3.20
2019-01-25T03:33:06.944Z,-3.20
2019-01-25T03:35:36.611Z,-3.20
2019-01-25T03:38:06.095Z,-3.20
2019-01-25T03:40:35.532Z,-3.20
2019-01-25T03:43:05.090Z,-3.20
2019-01-25T03:45:34.514Z,-3.20
2019-01-25T03:48:04.317Z,-3.20
2019-01-25T03:50:33.802Z,-3.20
2019-01-25T03:53:03.364Z,-3.20
2019-01-25T03:55:33.171Z,-3.20
2019-01-25T03:58:02.779Z,-3.20
2019-01-25T04:00:32.203Z,-3.20
2019-01-25T04:03:03.449Z,-3.20
2019-01-25T04:05:32.868Z,-3.20
2019-01-25T04:08:02.364Z,-3.20
2019-01-25T04:10:32.683Z,-3.20
2019-01-25T04:13:02.232Z,-3.20
2019-01-25T04:15:33.543Z,-3.20
2019-01-25T04:18:03.063Z,-3.20
2019-01-25T04:20:32.841Z,-3.10
2019-01-25T04:23:02.299Z,-3.20
2019-01-25T04:25:31.766Z,-3.20
2019-01-25T04:28:01.215Z,-3.20
2019-01-25T04:30:32.891Z,-3.20
2019-01-25T04:33:02.672Z,-3.30
2019-01-25T04:35:32.145Z,-3.20
2019-01-25T04:38:01.565Z,-3.20
2019-01-25T04:40:30.983Z,-3.20
2019-01-25T04:43:00.494Z,-3.20
2019-01-25T04:45:29.996Z,-3.10
2019-01-25T04:47:59.499Z,-3.20
2019-01-25T04:50:28.986Z,-3.10
2019-01-25T04:52:58.477Z,-3.20
2019-01-25T04:55:30.243Z,-3.10
2019-01-25T04:58:11.495Z,-3.10
2019-01-25T05:00:41.168Z,-3.10
2019-01-25T05:03:12.395Z,-3.10
2019-01-25T05:05:42.528Z,-3.10
2019-01-25T05:08:16.946Z,-3.10
2019-01-25T05:10:46.632Z,-3.20
2019-01-25T05:13:16.164Z,-3.20
2019-01-25T05:15:45.801Z,-3.20
2019-01-25T05:18:15.486Z,-3.20
2019-01-25T05:20:44.974Z,-3.20
2019-01-25T05:23:14.508Z,-3.20
2019-01-25T05:25:44.036Z,-3.10
2019-01-25T05:28:20.314Z,-3.10
2019-01-25T05:30:52.266Z,-3.10
2019-01-25T05:33:21.768Z,-3.10
2019-01-25T05:35:51.204Z,-3.10
2019-01-25T05:38:20.619Z,-3.10
2019-01-25T05:40:50.225Z,-3.10
2019-01-25T05:43:19.647Z,-3.10
2019-01-25T05:45:49.122Z,-3.10
2019-01-25T05:48:18.691Z,-3.10
2019-01-25T05:50:48.113Z,-3.10
2019-01-25T05:53:17.544Z,-3.10
2019-01-25T05:55:46.953Z,-3.10
2019-01-25T05:58:16.378Z,-3.10
2019-01-25T06:00:45.903Z,-3.10
2019-01-25T06:03:16.103Z,-3.10
2019-01-25T06:05:45.768Z,-3.20
2019-01-25T06:08:43.430Z,-3.10
2019-01-25T06:11:11.181Z,-3.10
2019-01-25T06:13:41.990Z,-3.10
2019-01-25T06:16:10.995Z,-3.10
2019-01-25T06:18:40.439Z,-3.10
2019-01-25T06:21:10.238Z,-3.10
2019-01-25T06:23:39.829Z,-3.10
2019-01-25T06:26:10.494Z,-3.10
2019-01-25T06:28:39.969Z,-3.10
2019-01-25T06:31:09.501Z,-3.10
2019-01-25T06:33:38.943Z,-3.10
2019-01-25T06:36:08.601Z,-3.10
2019-01-25T06:38:38.310Z,-3.10
2019-01-25T06:41:08.418Z,-3.10
2019-01-25T06:43:37.839Z,-3.10
2019-01-25T06:46:07.319Z,-3.10
2019-01-25T06:48:36.742Z,-3.10
2019-01-25T06:51:06.634Z,-3.10
2019-01-25T06:53:36.707Z,-3.10
2019-01-25T06:56:06.142Z,-3.10
2019-01-25T06:58:53.774Z,-3.10
2019-01-25T07:01:41.010Z,-3.10
2019-01-25T07:04:10.582Z,-3.10
2019-01-25T07:06:40.002Z,-3.10
2019-01-25T07:09:11.368Z,-3.10
2019-01-25T07:11:42.327Z,-3.20
2019-01-25T07:14:12.072Z,-3.20
2019-01-25T07:16:41.498Z,-3.20
2019-01-25T07:19:10.962Z,-3.10
2019-01-25T07:21:40.400Z,-3.10
2019-01-25T07:24:09.843Z,-3.10
2019-01-25T07:26:39.381Z,-3.10
2019-01-25T07:29:08.819Z,-3.10
2019-01-25T07:31:38.565Z,-3.10
2019-01-25T07:34:08.855Z,-3.10
2019-01-25T07:36:38.396Z,-3.10
2019-01-25T07:39:27.999Z,-3.00
2019-01-25T07:41:59.633Z,-3.00
2019-01-25T07:44:28.781Z,-3.00
2019-01-25T07:46:58.311Z,-3.00
2019-01-25T07:49:27.727Z,-3.00
2019-01-25T07:51:57.200Z,-3.00
2019-01-25T07:54:26.681Z,-3.00
2019-01-25T07:56:56.110Z,-3.00
2019-01-25T07:59:25.806Z,-3.00
2019-01-25T08:01:55.327Z,-3.00
2019-01-25T08:04:24.853Z,-3.00
2019-01-25T08:07:06.754Z,-3.00
2019-01-25T08:09:36.332Z,-3.00
2019-01-25T08:12:07.479Z,-3.00
2019-01-25T08:14:37.276Z,-3.00
2019-01-25T08:17:06.850Z,-3.00
2019-01-25T08:19:36.258Z,-3.00
2019-01-25T08:22:05.758Z,-3.00
2019-01-25T08:24:35.213Z,-3.00
2019-01-25T08:27:04.835Z,-3.00
2019-01-25T08:29:34.459Z,-3.00
2019-01-25T08:32:04.637Z,-3.00
2019-01-25T08:34:34.082Z,-3.00
2019-01-25T08:37:03.658Z,-3.00
2019-01-25T08:39:33.086Z,-3.00
2019-01-25T08:42:02.535Z,-3.00
2019-01-25T08:44:32.007Z,-3.10
2019-01-25T08:47:01.477Z,-3.00
2019-01-25T08:49:30.967Z,-3.00
2019-01-25T08:52:00.379Z,-3.00
2019-01-25T08:54:29.820Z,-3.00
2019-01-25T08:56:59.267Z,-3.10
2019-01-25T08:59:28.735Z,-3.00
2019-01-25T09:01:58.167Z,-3.10
2019-01-25T09:04:27.604Z,-3.10
2019-01-25T09:06:57.046Z,-3.10
2019-01-25T09:09:26.620Z,-3.10
2019-01-25T09:11:56.067Z,-3.00
2019-01-25T09:14:25.491Z,-3.00
2019-01-25T09:16:55.051Z,-3.00
2019-01-25T09:19:24.535Z,-3.10
2019-01-25T09:21:54.021Z,-3.00
2019-01-25T09:24:23.497Z,-3.00
2019-01-25T09:26:52.965Z,-3.10
2019-01-25T09:29:22.440Z,-3.10
2019-01-25T09:31:52.140Z,-3.10
2019-01-25T09:34:21.748Z,-3.10
2019-01-25T09:36:51.190Z,-3.10
2019-01-25T09:39:20.684Z,-3.00
2019-01-25T09:41:50.203Z,-3.00
2019-01-25T09:44:19.673Z,-3.00
2019-01-25T09:46:49.097Z,-2.90
2019-01-25T09:49:18.577Z,-2.90
2019-01-25T09:51:48.015Z,-2.80
2019-01-25T09:54:17.440Z,-2.80
2019-01-25T09:56:46.853Z,-2.90
2019-01-25T09:59:16.284Z,-3.00
2019-01-25T10:01:45.705Z,-3.00
2019-01-25T10:04:15.185Z,-2.90
2019-01-25T10:06:44.697Z,-2.90
2019-01-25T10:09:14.132Z,-2.80
2019-01-25T10:11:43.556Z,-2.70
2019-01-25T10:14:12.983Z,-2.60
2019-01-25T10:16:42.406Z,-2.60
2019-01-25T10:19:11.910Z,-2.60
2019-01-25T10:21:41.352Z,-2.60
2019-01-25T10:24:10.883Z,-2.60
2019-01-25T10:26:40.336Z,-2.50
2019-01-25T10:29:09.854Z,-2.60
2019-01-25T10:31:39.298Z,-2.60
2019-01-25T10:34:08.730Z,-2.60
2019-01-25T10:36:38.254Z,-2.60
2019-01-25T10:39:08.694Z,-2.60
2019-01-25T10:41:38.263Z,-2.60
2019-01-25T10:44:08.948Z,-2.60
2019-01-25T10:46:38.452Z,-2.60
2019-01-25T10:49:07.879Z,-2.60
2019-01-25T10:51:37.757Z,-2.60
2019-01-25T10:54:07.447Z,-2.60
2019-01-25T10:56:41.794Z,-2.60
2019-01-25T10:59:08.022Z,-2.60
2019-01-25T11:01:37.527Z,-2.70
2019-01-25T11:04:11.359Z,-2.70
2019-01-25T11:06:38.272Z,-2.60
2019-01-25T11:09:09.803Z,-2.60
2019-01-25T11:11:39.512Z,-2.60
2019-01-25T11:14:08.941Z,-2.60
2019-01-25T11:16:38.521Z,-2.50
2019-01-25T11:19:08.173Z,-2.50
2019-01-25T11:21:37.757Z,-2.30
2019-01-25T11:24:07.951Z,-2.20
2019-01-25T11:26:37.631Z,-2.20
2019-01-25T11:29:07.151Z,-2.20
2019-01-25T11:31:36.604Z,-2.20
2019-01-25T11:34:06.236Z,-2.30
2019-01-25T11:36:35.741Z,-2.20
2019-01-25T11:39:09.100Z,-2.20
2019-01-25T11:41:38.549Z,-2.20
2019-01-25T11:44:07.996Z,-2.10
2019-01-25T11:46:37.439Z,-2.20
2019-01-25T11:49:06.954Z,-2.20
2019-01-25T11:51:36.442Z,-2.30
2019-01-25T11:54:05.922Z,-2.30
2019-01-25T11:56:35.421Z,-2.20
2019-01-25T11:59:05.132Z,-2.20
2019-01-25T12:01:34.594Z,-2.30
2019-01-25T12:04:04.783Z,-2.30
2019-01-25T12:06:34.361Z,-2.30
2019-01-25T12:09:07.142Z,-2.20
2019-01-25T12:11:36.597Z,-2.20
2019-01-25T12:14:06.168Z,-2.20
2019-01-25T12:16:35.578Z,-2.20
2019-01-25T12:19:05.254Z,-2.10
2019-01-25T12:21:34.728Z,-2.10
2019-01-25T12:24:04.832Z,-2.10
2019-01-25T12:26:34.260Z,-2.10
2019-01-25T12:29:03.912Z,-2.10
2019-01-25T12:31:33.503Z,-2.10
2019-01-25T12:34:03.022Z,-2.10
2019-01-25T12:36:32.510Z,-2.10
2019-01-25T12:39:01.955Z,-2.10
2019-01-25T12:41:31.394Z,-2.10
2019-01-25T12:44:00.824Z,-2.10
2019-01-25T12:46:30.391Z,-2.10
2019-01-25T12:48:59.837Z,-2.10
2019-01-25T12:51:51.538Z,-2.10
2019-01-25T12:54:21.107Z,-2.10
2019-01-25T12:56:50.524Z,-2.10
2019-01-25T12:59:19.983Z,-2.10
2019-01-25T13:01:50.975Z,-2.00
2019-01-25T13:04:20.601Z,-2.00
2019-01-25T13:06:50.369Z,-2.00
2019-01-25T13:09:19.879Z,-2.00
2019-01-25T13:11:49.634Z,-2.00
2019-01-25T13:14:19.125Z,-2.00
2019-01-25T13:16:48.585Z,-2.00
2019-01-25T13:19:18.023Z,-2.00
2019-01-25T13:21:47.437Z,-2.10
2019-01-25T13:24:16.869Z,-2.10
2019-01-25T13:26:46.291Z,-2.10
2019-01-25T13:29:15.795Z,-2.20
2019-01-25T13:31:45.401Z,-2.10
2019-01-25T13:34:15.190Z,-2.10
2019-01-25T13:36:44.705Z,-2.20
2019-01-25T13:39:14.179Z,-2.20
2019-01-25T13:41:43.602Z,-2.20
2019-01-25T13:44:13.010Z,-2.10
2019-01-25T13:46:42.466Z,-2.20
2019-01-25T13:49:11.946Z,-2.20
2019-01-25T13:51:41.366Z,-2.20
2019-01-25T13:54:10.851Z,-2.20
2019-01-25T13:56:40.346Z,-2.20
2019-01-25T13:59:09.825Z,-2.10
2019-01-25T14:01:39.286Z,-2.10
2019-01-25T14:04:08.778Z,-2.10
2019-01-25T14:06:38.222Z,-2.10
2019-01-25T14:09:09.174Z,-2.20
2019-01-25T14:11:38.611Z,-2.10
2019-01-25T14:14:08.022Z,-2.10
2019-01-25T14:16:37.481Z,-2.10
2019-01-25T14:19:07.059Z,-2.10
2019-01-25T14:21:36.496Z,-2.10
2019-01-25T14:24:06.051Z,-2.10
2019-01-25T14:26:35.502Z,-2.10
2019-01-25T14:29:05.389Z,-2.20
2019-01-25T14:31:34.836Z,-2.10
2019-01-25T14:34:04.546Z,-2.10
2019-01-25T14:36:34.060Z,-2.10
2019-01-25T14:39:05.190Z,-2.10
2019-01-25T14:41:34.625Z,-2.10
2019-01-25T14:44:05.089Z,-2.10
2019-01-25T14:46:34.531Z,-2.10
2019-01-25T14:49:04.414Z,-2.10
2019-01-25T14:51:33.939Z,-2.10
2019-01-25T14:54:03.655Z,-2.20
2019-01-25T14:56:33.103Z,-2.20
2019-01-25T14:59:02.536Z,-2.20
2019-01-25T15:01:32.051Z,-2.20
2019-01-25T15:04:01.546Z,-2.20
2019-01-25T15:06:31.164Z,-2.30
2019-01-25T15:09:00.570Z,-2.20
2019-01-25T15:11:30.000Z,-2.20
2019-01-25T15:14:02.500Z,-2.20
2019-01-25T15:16:30.620Z,-2.20
2019-01-25T15:19:00.080Z,-2.20
2019-01-25T15:21:29.518Z,-2.20
2019-01-25T15:23:59.046Z,-2.30
2019-01-25T15:26:28.528Z,-2.20
2019-01-25T15:28:57.968Z,-2.20
2019-01-25T15:31:27.440Z,-2.20
2019-01-25T15:33:56.954Z,-2.20
2019-01-25T15:36:26.382Z,-2.20
2019-01-25T15:38:55.815Z,-2.20
2019-01-25T15:41:25.331Z,-2.20
2019-01-25T15:44:13.999Z,-2.20
2019-01-25T15:46:43.636Z,-2.20
2019-01-25T15:49:13.058Z,-2.20
2019-01-25T15:51:42.661Z,-2.20
2019-01-25T15:54:12.146Z,-2.20
2019-01-25T15:56:41.573Z,-2.20
2019-01-25T15:59:11.041Z,-2.20
2019-01-25T16:01:40.483Z,-2.20
2019-01-25T16:04:10.113Z,-2.20
2019-01-25T16:06:39.536Z,-2.20
2019-01-25T16:09:14.133Z,-2.20
2019-01-25T16:11:43.877Z,-2.20
2019-01-25T16:14:17.804Z,-2.20
2019-01-25T16:16:44.607Z,-2.20
2019-01-25T16:19:14.059Z,-2.20
2019-01-25T16:21:43.658Z,-2.20
2019-01-25T16:24:13.197Z,-2.20
2019-01-25T16:26:44.365Z,-2.20
2019-01-25T16:29:13.979Z,-2.20
2019-01-25T16:31:43.430Z,-2.30
2019-01-25T16:34:13.108Z,-2.20
2019-01-25T16:36:42.615Z,-2.20
2019-01-25T16:39:12.072Z,-2.20
2019-01-25T16:41:41.658Z,-2.20
2019-01-25T16:44:11.243Z,-2.30
2019-01-25T16:46:40.677Z,-2.30
2019-01-25T16:49:10.112Z,-2.30
2019-01-25T16:51:39.563Z,-2.30
2019-01-25T16:54:09.188Z,-2.30
2019-01-25T16:56:38.715Z,-2.30
2019-01-25T16:59:08.192Z,-2.20
2019-01-25T17:01:38.126Z,-2.30
2019-01-25T17:04:08.311Z,-2.30
2019-01-25T17:06:37.900Z,-2.30
2019-01-25T17:09:08.500Z,-2.30
2019-01-25T17:11:38.084Z,-2.30
2019-01-25T17:14:07.597Z,-2.30
2019-01-25T17:16:37.026Z,-2.30
2019-01-25T17:19:06.445Z,-2.30
2019-01-25T17:21:35.934Z,-2.30
2019-01-25T17:24:05.492Z,-2.30
2019-01-25T17:26:34.918Z,-2.30
2019-01-25T17:29:04.744Z,-2.30
2019-01-25T17:31:34.200Z,-2.30
2019-01-25T17:34:04.654Z,-2.30
2019-01-25T17:36:34.212Z,-2.30
2019-01-25T17:39:05.388Z,-2.30
2019-01-25T17:41:34.824Z,-2.30
2019-01-25T17:44:04.430Z,-2.30
2019-01-25T17:46:33.908Z,-2.30
2019-01-25T17:49:03.352Z,-2.30
2019-01-25T17:51:32.814Z,-2.30
2019-01-25T17:54:02.250Z,-2.30
2019-01-25T17:56:32.220Z,-2.30
2019-01-25T17:59:01.667Z,-2.20
2019-01-25T18:01:31.176Z,-2.20
2019-01-25T18:04:00.629Z,-2.20
2019-01-25T18:06:30.055Z,-2.20
2019-01-25T18:08:59.542Z,-2.20
2019-01-25T18:11:28.982Z,-2.20
2019-01-25T18:13:58.428Z,-2.20
2019-01-25T18:16:27.844Z,-2.20
2019-01-25T18:18:57.266Z,-2.20
2019-01-25T18:21:26.789Z,-2.30
2019-01-25T18:23:56.310Z,-2.30
2019-01-25T18:26:26.323Z,-2.20
2019-01-25T18:29:05.246Z,-2.30
2019-01-25T18:31:35.175Z,-2.30
2019-01-25T18:34:05.456Z,-2.30
2019-01-25T18:36:34.986Z,-2.30
2019-01-25T18:39:07.628Z,-2.30
2019-01-25T18:41:37.078Z,-2.30
2019-01-25T18:44:07.091Z,-2.30
2019-01-25T18:46:36.508Z,-2.30
2019-01-25T18:49:05.993Z,-2.30
2019-01-25T18:51:35.581Z,-2.30
2019-01-25T18:54:05.579Z,-2.30
2019-01-25T18:56:35.304Z,-2.30
2019-01-25T18:59:04.986Z,-2.30
2019-01-25T19:01:34.604Z,-2.30
2019-01-25T19:04:04.261Z,-2.30
2019-01-25T19:06:33.992Z,-2.30
2019-01-25T19:09:05.649Z,-2.30
2019-01-25T19:11:35.175Z,-2.30
2019-01-25T19:14:04.727Z,-2.30
2019-01-25T19:16:34.261Z,-2.20
2019-01-25T19:19:03.744Z,-2.20
2019-01-25T19:21:33.422Z,-2.20
2019-01-25T19:24:03.056Z,-2.30
2019-01-25T19:26:32.506Z,-2.20
2019-01-25T19:29:01.972Z,-2.20
2019-01-25T19:31:31.715Z,-2.20
2019-01-25T19:34:01.293Z,-2.20
2019-01-25T19:36:30.716Z,-2.20
2019-01-25T19:39:00.174Z,-2.20
2019-01-25T19:41:29.601Z,-2.20
2019-01-25T19:43:59.034Z,-2.20
2019-01-25T19:46:28.462Z,-2.10
2019-01-25T19:48:57.890Z,-2.20
2019-01-25T19:51:27.402Z,-2.20
2019-01-25T19:53:56.912Z,-2.20
2019-01-25T19:56:26.419Z,-2.20
2019-01-25T19:58:55.867Z,-2.20
2019-01-25T20:01:25.435Z,-2.20
2019-01-25T20:03:55.223Z,-2.10
2019-01-25T20:06:24.719Z,-2.10
2019-01-25T20:08:54.277Z,-2.10
2019-01-25T20:11:23.747Z,-2.10
2019-01-25T20:13:53.175Z,-2.10
2019-01-25T20:16:22.710Z,-2.20
2019-01-25T20:18:52.411Z,-2.10
2019-01-25T20:21:21.894Z,-2.10
2019-01-25T20:23:51.361Z,-2.10
2019-01-25T20:26:20.856Z,-2.20
2019-01-25T20:28:50.286Z,-2.10
2019-01-25T20:31:19.863Z,-2.10
2019-01-25T20:33:58.435Z,-2.20
2019-01-25T20:36:27.917Z,-2.20
2019-01-25T20:38:57.363Z,-2.20
2019-01-25T20:41:26.810Z,-2.20
2019-01-25T20:43:56.225Z,-2.20
2019-01-25T20:46:25.817Z,-2.20
2019-01-25T20:48:55.294Z,-2.20
2019-01-25T20:51:24.874Z,-2.20
2019-01-25T20:53:54.398Z,-2.20
2019-01-25T20:56:23.838Z,-2.20
2019-01-25T20:58:53.280Z,-2.20
2019-01-25T21:01:22.923Z,-2.30
2019-01-25T21:03:52.350Z,-2.30
2019-01-25T21:06:21.803Z,-2.20
2019-01-25T21:08:51.322Z,-2.30
2019-01-25T21:11:20.751Z,-2.30
2019-01-25T21:13:50.166Z,-2.30
2019-01-25T21:16:19.726Z,-2.30
2019-01-25T21:18:49.150Z,-2.30
2019-01-25T21:21:18.654Z,-2.30
2019-01-25T21:23:48.188Z,-2.30
2019-01-25T21:26:17.639Z,-2.30
2019-01-25T21:28:47.134Z,-2.30
2019-01-25T21:31:16.594Z,-2.30
2019-01-25T21:33:46.007Z,-2.30
2019-01-25T21:36:15.459Z,-2.30
2019-01-25T21:38:44.883Z,-2.30
2019-01-25T21:41:14.324Z,-2.30
2019-01-25T21:43:43.838Z,-2.30
2019-01-25T21:46:13.408Z,-2.30
2019-01-25T21:48:42.837Z,-2.30
2019-01-25T21:51:12.420Z,-2.20
2019-01-25T21:53:41.843Z,-2.30
2019-01-25T21:56:11.381Z,-2.20
2019-01-25T21:58:40.829Z,-2.30
2019-01-25T22:01:10.475Z,-2.20
2019-01-25T22:03:39.967Z,-2.20
2019-01-25T22:06:09.549Z,-2.30
2019-01-25T22:08:38.976Z,-2.20
2019-01-25T22:11:08.473Z,-2.20
2019-01-25T22:13:38.089Z,-2.20
2019-01-25T22:16:07.571Z,-2.20
2019-01-25T22:18:37.031Z,-2.20
2019-01-25T22:21:06.614Z,-2.20
2019-01-25T22:23:36.112Z,-2.30
2019-01-25T22:26:05.664Z,-2.20
2019-01-25T22:28:35.094Z,-2.20
2019-01-25T22:31:04.601Z,-2.20
2019-01-25T22:33:35.155Z,-2.20
2019-01-25T22:36:04.730Z,-2.20
2019-01-25T22:38:34.130Z,-2.20
2019-01-25T22:41:03.567Z,-2.20
2019-01-25T22:43:32.961Z,-2.20
2019-01-25T22:46:02.378Z,-2.20
2019-01-25T22:48:33.451Z,-2.20
2019-01-25T22:51:03.077Z,-2.20
2019-01-25T22:53:32.589Z,-2.20
2019-01-25T22:56:02.077Z,-2.20
2019-01-25T22:58:31.513Z,-2.20
2019-01-25T23:01:26.139Z,-2.20
2019-01-25T23:04:33.002Z,-2.20
2019-01-25T23:07:18.622Z,-2.20
2019-01-25T23:09:56.578Z,-2.20
2019-01-25T23:12:26.069Z,-2.20
2019-01-25T23:14:55.481Z,-2.20
2019-01-25T23:17:25.196Z,-2.20
2019-01-25T23:19:54.593Z,-2.20
2019-01-25T23:22:23.997Z,-2.20
2019-01-25T23:24:53.395Z,-2.20
2019-01-25T23:27:22.844Z,-2.20
2019-01-25T23:29:52.240Z,-2.20
2019-01-25T23:32:21.654Z,-2.20
2019-01-25T23:34:51.065Z,-2.20
2019-01-25T23:37:20.849Z,-2.20
2019-01-25T23:39:50.284Z,-2.20
2019-01-25T23:42:19.689Z,-2.30
2019-01-25T23:44:49.092Z,-2.20
2019-01-25T23:47:18.488Z,-2.20
2019-01-25T23:49:47.890Z,-2.20
2019-01-25T23:52:17.291Z,-2.20
2019-01-25T23:54:46.717Z,-2.30
2019-01-25T23:57:16.112Z,-2.20
2019-01-25T23:59:45.542Z,-2.20
